Terminal Aerodrome Forecast
Issued by NWS Newport/Morehead City, NC

Home | Current Version | Previous Version | Text Only | Print | Product List | Glossary On
Versions: 1 2 3 4 5 6 7 8 9 10 11 12 13 14 15 16 17
000
FTUS42 KMHX 031121
TAFEWN
TAF
KEWN 031121Z 0312/0412 18004KT 4SM -RA BR BKN020
     FM031600 VRB05KT P6SM VCTS BKN025CB
     FM032300 05005KT P6SM VCSH OVC015
     FM040600 04004KT 5SM -RA BR OVC010=

USA.gov is the U.S. government's official web portal to all federal, state and local government web resources and services.